Sect Campobello, Puerto Rico
Current Conditions -  °F | °C
As of 6:55 AM on Sunday 23 Nov 2014 (Local Time) from TJIG Reporting Station
Scattered Clouds Scattered Clouds  
Wind Chill: 77°   Ceiling: Unl
Heat Index: 78°   Visibility: 10mi
Dew Point: 72°   Wind: 6mph
Humidity: 83%   Direction: 90°E
Pressure: 30.03"   Gusts: NA
Location:  18.1743°N, 66.1581°W
Report Text: TJIG 231055Z 09005KT 10SM SCT020 SCT090 25/22 A3003 RMK RY09 IN USE ATIS A
Loading
Personal Weather Stations






























Interactive Weather Map New forecast layout! Learn more

10-Day Weather Forecast

Advertisements
Track Severe Weather on mobile